sensor_id;sensor_type;location;lat;lon;timestamp;P1;durP1;ratioP1;P2;durP2;ratioP2
2944;SDS011;1482;51.398;7.128;2022-11-15T00:00:08;15.33;;;7.90;;
2944;SDS011;1482;51.398;7.128;2022-11-15T00:06:00;10.90;;;7.67;;
2944;SDS011;1482;51.398;7.128;2022-11-15T00:08:28;8.67;;;7.60;;
2944;SDS011;1482;51.398;7.128;2022-11-15T00:10:56;10.50;;;8.30;;
2944;SDS011;1482;51.398;7.128;2022-11-15T00:13:23;8.57;;;7.53;;
2944;SDS011;1482;51.398;7.128;2022-11-15T00:15:48;11.50;;;8.07;;
2944;SDS011;1482;51.398;7.128;2022-11-15T00:18:14;17.93;;;9.53;;
2944;SDS011;1482;51.398;7.128;2022-11-15T00:20:40;11.00;;;8.23;;
2944;SDS011;1482;51.398;7.128;2022-11-15T00:23:06;9.50;;;7.37;;
2944;SDS011;1482;51.398;7.128;2022-11-15T00:25:32;10.70;;;7.73;;
2944;SDS011;1482;51.398;7.128;2022-11-15T00:27:58;10.33;;;7.30;;
2944;SDS011;1482;51.398;7.128;2022-11-15T00:30:24;10.40;;;9.17;;
2944;SDS011;1482;51.398;7.128;2022-11-15T00:32:50;11.40;;;8.37;;
2944;SDS011;1482;51.398;7.128;2022-11-15T00:35:16;16.17;;;8.70;;
2944;SDS011;1482;51.398;7.128;2022-11-15T00:37:42;11.17;;;7.90;;
2944;SDS011;1482;51.398;7.128;2022-11-15T00:40:08;9.27;;;7.73;;
2944;SDS011;1482;51.398;7.128;2022-11-15T00:42:35;8.90;;;7.93;;
2944;SDS011;1482;51.398;7.128;2022-11-15T00:45:00;9.90;;;7.27;;
2944;SDS011;1482;51.398;7.128;2022-11-15T00:47:26;9.97;;;7.47;;
2944;SDS011;1482;51.398;7.128;2022-11-15T00:49:51;10.20;;;6.80;;
2944;SDS011;1482;51.398;7.128;2022-11-15T00:52:17;8.60;;;7.63;;
2944;SDS011;1482;51.398;7.128;2022-11-15T00:54:42;10.00;;;8.37;;
2944;SDS011;1482;51.398;7.128;2022-11-15T00:57:08;7.70;;;6.90;;
2944;SDS011;1482;51.398;7.128;2022-11-15T00:59:33;11.20;;;8.17;;
2944;SDS011;1482;51.398;7.128;2022-11-15T01:01:59;10.23;;;7.37;;
2944;SDS011;1482;51.398;7.128;2022-11-15T01:04:24;8.50;;;7.70;;
2944;SDS011;1482;51.398;7.128;2022-11-15T01:06:50;16.20;;;8.20;;
2944;SDS011;1482;51.398;7.128;2022-11-15T01:09:15;10.80;;;6.97;;
2944;SDS011;1482;51.398;7.128;2022-11-15T01:11:41;8.13;;;6.90;;
2944;SDS011;1482;51.398;7.128;2022-11-15T01:14:06;8.10;;;7.03;;
2944;SDS011;1482;51.398;7.128;2022-11-15T01:16:32;8.10;;;7.30;;
2944;SDS011;1482;51.398;7.128;2022-11-15T01:18:58;8.87;;;6.40;;
2944;SDS011;1482;51.398;7.128;2022-11-15T01:21:24;14.50;;;7.57;;
2944;SDS011;1482;51.398;7.128;2022-11-15T01:23:52;9.97;;;7.00;;
2944;SDS011;1482;51.398;7.128;2022-11-15T01:26:21;9.07;;;7.10;;
2944;SDS011;1482;51.398;7.128;2022-11-15T01:28:48;7.57;;;6.27;;
2944;SDS011;1482;51.398;7.128;2022-11-15T01:31:15;8.33;;;6.57;;
2944;SDS011;1482;51.398;7.128;2022-11-15T01:33:42;8.33;;;6.30;;
2944;SDS011;1482;51.398;7.128;2022-11-15T01:36:11;14.43;;;8.23;;
2944;SDS011;1482;51.398;7.128;2022-11-15T01:38:41;11.00;;;7.20;;
2944;SDS011;1482;51.398;7.128;2022-11-15T01:41:15;10.00;;;7.17;;
2944;SDS011;1482;51.398;7.128;2022-11-15T01:43:42;10.30;;;6.67;;
2944;SDS011;1482;51.398;7.128;2022-11-15T01:48:59;8.33;;;6.73;;
2944;SDS011;1482;51.398;7.128;2022-11-15T01:51:29;9.07;;;6.73;;
2944;SDS011;1482;51.398;7.128;2022-11-15T01:53:58;9.53;;;7.30;;
2944;SDS011;1482;51.398;7.128;2022-11-15T01:56:29;11.57;;;7.77;;
2944;SDS011;1482;51.398;7.128;2022-11-15T01:58:57;9.90;;;7.57;;
2944;SDS011;1482;51.398;7.128;2022-11-15T02:01:26;12.20;;;7.50;;
2944;SDS011;1482;51.398;7.128;2022-11-15T02:03:56;7.30;;;6.20;;
2944;SDS011;1482;51.398;7.128;2022-11-15T02:06:24;10.63;;;7.80;;
2944;SDS011;1482;51.398;7.128;2022-11-15T02:08:50;8.93;;;6.93;;
2944;SDS011;1482;51.398;7.128;2022-11-15T02:11:16;8.30;;;7.50;;
2944;SDS011;1482;51.398;7.128;2022-11-15T02:13:42;8.13;;;7.30;;
2944;SDS011;1482;51.398;7.128;2022-11-15T02:19:05;9.23;;;8.30;;
2944;SDS011;1482;51.398;7.128;2022-11-15T02:22:04;10.03;;;7.13;;
2944;SDS011;1482;51.398;7.128;2022-11-15T02:27:53;9.80;;;6.87;;
2944;SDS011;1482;51.398;7.128;2022-11-15T02:33:01;8.20;;;7.40;;
2944;SDS011;1482;51.398;7.128;2022-11-15T02:35:37;9.20;;;7.87;;
2944;SDS011;1482;51.398;7.128;2022-11-15T02:38:19;11.00;;;8.70;;
2944;SDS011;1482;51.398;7.128;2022-11-15T02:41:07;11.70;;;7.70;;
2944;SDS011;1482;51.398;7.128;2022-11-15T02:43:43;8.20;;;7.17;;
2944;SDS011;1482;51.398;7.128;2022-11-15T02:49:26;15.70;;;8.00;;
2944;SDS011;1482;51.398;7.128;2022-11-15T02:51:54;10.50;;;8.00;;
2944;SDS011;1482;51.398;7.128;2022-11-15T02:54:21;9.87;;;7.60;;
2944;SDS011;1482;51.398;7.128;2022-11-15T02:56:49;10.40;;;7.30;;
2944;SDS011;1482;51.398;7.128;2022-11-15T02:59:20;9.03;;;7.83;;
2944;SDS011;1482;51.398;7.128;2022-11-15T03:04:34;9.70;;;8.20;;
2944;SDS011;1482;51.398;7.128;2022-11-15T03:09:40;8.13;;;6.90;;
2944;SDS011;1482;51.398;7.128;2022-11-15T03:19:54;12.13;;;7.60;;
2944;SDS011;1482;51.398;7.128;2022-11-15T03:22:24;11.00;;;8.27;;
2944;SDS011;1482;51.398;7.128;2022-11-15T03:24:56;7.50;;;6.90;;
2944;SDS011;1482;51.398;7.128;2022-11-15T03:27:26;9.83;;;8.00;;
2944;SDS011;1482;51.398;7.128;2022-11-15T03:29:58;8.60;;;7.57;;
2944;SDS011;1482;51.398;7.128;2022-11-15T03:32:28;10.53;;;7.70;;
2944;SDS011;1482;51.398;7.128;2022-11-15T03:34:57;9.93;;;6.37;;
2944;SDS011;1482;51.398;7.128;2022-11-15T03:37:29;9.10;;;7.87;;
2944;SDS011;1482;51.398;7.128;2022-11-15T03:40:00;9.77;;;7.67;;
2944;SDS011;1482;51.398;7.128;2022-11-15T03:42:29;7.53;;;6.77;;
2944;SDS011;1482;51.398;7.128;2022-11-15T03:45:13;8.57;;;7.67;;
2944;SDS011;1482;51.398;7.128;2022-11-15T03:47:46;10.70;;;7.43;;
2944;SDS011;1482;51.398;7.128;2022-11-15T03:50:19;7.47;;;6.77;;
2944;SDS011;1482;51.398;7.128;2022-11-15T03:52:47;12.23;;;6.50;;
2944;SDS011;1482;51.398;7.128;2022-11-15T03:55:18;10.37;;;7.43;;
2944;SDS011;1482;51.398;7.128;2022-11-15T03:57:45;7.60;;;6.50;;
2944;SDS011;1482;51.398;7.128;2022-11-15T04:00:13;8.40;;;7.10;;
2944;SDS011;1482;51.398;7.128;2022-11-15T04:02:39;9.77;;;7.07;;
2944;SDS011;1482;51.398;7.128;2022-11-15T04:05:04;8.50;;;6.77;;
2944;SDS011;1482;51.398;7.128;2022-11-15T04:07:30;11.30;;;6.13;;
2944;SDS011;1482;51.398;7.128;2022-11-15T04:09:55;8.43;;;6.40;;
2944;SDS011;1482;51.398;7.128;2022-11-15T04:12:27;6.57;;;5.80;;
2944;SDS011;1482;51.398;7.128;2022-11-15T04:14:57;7.77;;;6.10;;
2944;SDS011;1482;51.398;7.128;2022-11-15T04:20:10;6.03;;;5.20;;
2944;SDS011;1482;51.398;7.128;2022-11-15T04:22:56;7.87;;;6.53;;
2944;SDS011;1482;51.398;7.128;2022-11-15T04:25:41;9.30;;;6.20;;
2944;SDS011;1482;51.398;7.128;2022-11-15T04:28:07;10.03;;;5.83;;
2944;SDS011;1482;51.398;7.128;2022-11-15T04:30:32;8.13;;;5.03;;
2944;SDS011;1482;51.398;7.128;2022-11-15T04:32:58;8.27;;;6.67;;
2944;SDS011;1482;51.398;7.128;2022-11-15T04:35:24;7.07;;;6.17;;
2944;SDS011;1482;51.398;7.128;2022-11-15T04:37:49;6.97;;;5.57;;
2944;SDS011;1482;51.398;7.128;2022-11-15T04:40:15;7.40;;;6.60;;
2944;SDS011;1482;51.398;7.128;2022-11-15T04:42:41;9.93;;;6.50;;
2944;SDS011;1482;51.398;7.128;2022-11-15T04:45:10;6.60;;;6.00;;
2944;SDS011;1482;51.398;7.128;2022-11-15T04:47:35;6.80;;;5.97;;
2944;SDS011;1482;51.398;7.128;2022-11-15T04:50:01;6.23;;;5.63;;
2944;SDS011;1482;51.398;7.128;2022-11-15T04:52:27;12.97;;;6.80;;
2944;SDS011;1482;51.398;7.128;2022-11-15T04:54:52;6.70;;;6.07;;
2944;SDS011;1482;51.398;7.128;2022-11-15T04:57:18;8.73;;;7.77;;
2944;SDS011;1482;51.398;7.128;2022-11-15T04:59:43;11.33;;;6.80;;
2944;SDS011;1482;51.398;7.128;2022-11-15T05:02:09;7.53;;;6.73;;
2944;SDS011;1482;51.398;7.128;2022-11-15T05:04:34;7.17;;;6.40;;
2944;SDS011;1482;51.398;7.128;2022-11-15T05:07:00;8.13;;;6.30;;
2944;SDS011;1482;51.398;7.128;2022-11-15T05:09:25;10.53;;;6.90;;
2944;SDS011;1482;51.398;7.128;2022-11-15T05:11:51;8.53;;;6.90;;
2944;SDS011;1482;51.398;7.128;2022-11-15T05:14:16;8.07;;;7.23;;
2944;SDS011;1482;51.398;7.128;2022-11-15T05:16:42;7.80;;;7.00;;
2944;SDS011;1482;51.398;7.128;2022-11-15T05:19:07;9.63;;;6.30;;
2944;SDS011;1482;51.398;7.128;2022-11-15T05:21:33;10.93;;;8.57;;
2944;SDS011;1482;51.398;7.128;2022-11-15T05:23:59;7.30;;;6.60;;
2944;SDS011;1482;51.398;7.128;2022-11-15T05:26:25;7.73;;;6.93;;
2944;SDS011;1482;51.398;7.128;2022-11-15T05:28:52;6.60;;;6.00;;
2944;SDS011;1482;51.398;7.128;2022-11-15T05:31:19;9.90;;;7.10;;
2944;SDS011;1482;51.398;7.128;2022-11-15T05:33:44;7.93;;;6.77;;
2944;SDS011;1482;51.398;7.128;2022-11-15T05:38:42;9.33;;;7.70;;
2944;SDS011;1482;51.398;7.128;2022-11-15T05:41:08;7.97;;;6.80;;
2944;SDS011;1482;51.398;7.128;2022-11-15T05:43:35;8.50;;;7.73;;
2944;SDS011;1482;51.398;7.128;2022-11-15T05:46:02;9.40;;;8.50;;
2944;SDS011;1482;51.398;7.128;2022-11-15T05:48:29;8.00;;;6.70;;
2944;SDS011;1482;51.398;7.128;2022-11-15T05:50:56;10.47;;;7.63;;
2944;SDS011;1482;51.398;7.128;2022-11-15T05:53:22;9.93;;;7.50;;
2944;SDS011;1482;51.398;7.128;2022-11-15T05:55:50;10.10;;;6.93;;
2944;SDS011;1482;51.398;7.128;2022-11-15T05:58:16;8.00;;;7.20;;
2944;SDS011;1482;51.398;7.128;2022-11-15T06:00:43;7.30;;;6.60;;
2944;SDS011;1482;51.398;7.128;2022-11-15T06:03:08;7.63;;;6.90;;
2944;SDS011;1482;51.398;7.128;2022-11-15T06:05:34;7.10;;;6.40;;
2944;SDS011;1482;51.398;7.128;2022-11-15T06:08:00;6.50;;;5.90;;
2944;SDS011;1482;51.398;7.128;2022-11-15T06:10:25;7.83;;;5.80;;
2944;SDS011;1482;51.398;7.128;2022-11-15T06:12:58;6.90;;;5.93;;
2944;SDS011;1482;51.398;7.128;2022-11-15T06:15:23;6.63;;;5.97;;
2944;SDS011;1482;51.398;7.128;2022-11-15T06:17:49;6.10;;;5.50;;
2944;SDS011;1482;51.398;7.128;2022-11-15T06:20:14;7.00;;;6.30;;
2944;SDS011;1482;51.398;7.128;2022-11-15T06:22:40;7.23;;;5.87;;
2944;SDS011;1482;51.398;7.128;2022-11-15T06:25:06;6.70;;;5.33;;
2944;SDS011;1482;51.398;7.128;2022-11-15T06:27:31;4.73;;;4.33;;
2944;SDS011;1482;51.398;7.128;2022-11-15T06:29:57;6.70;;;5.27;;
2944;SDS011;1482;51.398;7.128;2022-11-15T06:32:22;14.67;;;5.13;;
2944;SDS011;1482;51.398;7.128;2022-11-15T06:34:48;5.93;;;4.60;;
2944;SDS011;1482;51.398;7.128;2022-11-15T06:37:13;5.67;;;5.13;;
2944;SDS011;1482;51.398;7.128;2022-11-15T06:39:39;4.40;;;4.00;;
2944;SDS011;1482;51.398;7.128;2022-11-15T06:42:04;4.50;;;3.77;;
2944;SDS011;1482;51.398;7.128;2022-11-15T06:44:30;3.83;;;3.33;;
2944;SDS011;1482;51.398;7.128;2022-11-15T06:46:55;5.30;;;4.90;;
2944;SDS011;1482;51.398;7.128;2022-11-15T06:49:21;5.57;;;3.70;;
2944;SDS011;1482;51.398;7.128;2022-11-15T06:51:46;4.23;;;3.80;;
2944;SDS011;1482;51.398;7.128;2022-11-15T06:54:12;4.30;;;3.50;;
2944;SDS011;1482;51.398;7.128;2022-11-15T06:56:37;4.40;;;3.80;;
2944;SDS011;1482;51.398;7.128;2022-11-15T06:59:03;4.60;;;3.97;;
2944;SDS011;1482;51.398;7.128;2022-11-15T07:01:28;8.03;;;4.47;;
2944;SDS011;1482;51.398;7.128;2022-11-15T07:03:54;3.93;;;3.63;;
2944;SDS011;1482;51.398;7.128;2022-11-15T07:06:19;3.77;;;3.40;;
2944;SDS011;1482;51.398;7.128;2022-11-15T07:08:45;4.37;;;3.97;;
2944;SDS011;1482;51.398;7.128;2022-11-15T07:11:10;4.77;;;2.90;;
2944;SDS011;1482;51.398;7.128;2022-11-15T07:13:36;4.07;;;3.67;;
2944;SDS011;1482;51.398;7.128;2022-11-15T07:16:05;6.83;;;2.60;;
2944;SDS011;1482;51.398;7.128;2022-11-15T07:18:36;6.20;;;3.63;;
2944;SDS011;1482;51.398;7.128;2022-11-15T07:21:03;3.63;;;3.33;;
2944;SDS011;1482;51.398;7.128;2022-11-15T07:23:30;3.00;;;2.80;;
2944;SDS011;1482;51.398;7.128;2022-11-15T07:25:57;3.00;;;2.80;;
2944;SDS011;1482;51.398;7.128;2022-11-15T07:28:23;7.30;;;3.97;;
2944;SDS011;1482;51.398;7.128;2022-11-15T07:30:52;3.97;;;2.80;;
2944;SDS011;1482;51.398;7.128;2022-11-15T07:33:18;2.90;;;2.40;;
2944;SDS011;1482;51.398;7.128;2022-11-15T07:35:44;3.30;;;3.00;;
2944;SDS011;1482;51.398;7.128;2022-11-15T07:38:13;4.70;;;3.37;;
2944;SDS011;1482;51.398;7.128;2022-11-15T07:40:39;4.30;;;2.57;;
2944;SDS011;1482;51.398;7.128;2022-11-15T07:43:05;3.80;;;2.80;;
2944;SDS011;1482;51.398;7.128;2022-11-15T07:45:33;3.33;;;2.20;;
2944;SDS011;1482;51.398;7.128;2022-11-15T07:47:59;3.33;;;2.50;;
2944;SDS011;1482;51.398;7.128;2022-11-15T07:50:25;4.57;;;3.63;;
2944;SDS011;1482;51.398;7.128;2022-11-15T07:52:55;2.87;;;2.57;;
2944;SDS011;1482;51.398;7.128;2022-11-15T07:55:21;2.90;;;2.40;;
2944;SDS011;1482;51.398;7.128;2022-11-15T07:57:48;2.93;;;2.67;;
2944;SDS011;1482;51.398;7.128;2022-11-15T08:00:13;3.03;;;2.67;;
2944;SDS011;1482;51.398;7.128;2022-11-15T08:02:39;2.80;;;2.60;;
2944;SDS011;1482;51.398;7.128;2022-11-15T08:05:05;2.80;;;2.60;;
2944;SDS011;1482;51.398;7.128;2022-11-15T08:07:31;3.00;;;2.67;;
2944;SDS011;1482;51.398;7.128;2022-11-15T08:09:57;2.77;;;2.57;;
2944;SDS011;1482;51.398;7.128;2022-11-15T08:12:23;25.70;;;2.80;;
2944;SDS011;1482;51.398;7.128;2022-11-15T08:14:49;1.93;;;1.73;;
2944;SDS011;1482;51.398;7.128;2022-11-15T08:17:14;5.13;;;2.37;;
2944;SDS011;1482;51.398;7.128;2022-11-15T08:19:40;2.37;;;2.17;;
2944;SDS011;1482;51.398;7.128;2022-11-15T08:22:06;2.23;;;2.03;;
2944;SDS011;1482;51.398;7.128;2022-11-15T08:24:32;2.90;;;2.13;;
2944;SDS011;1482;51.398;7.128;2022-11-15T08:26:58;2.70;;;2.10;;
2944;SDS011;1482;51.398;7.128;2022-11-15T08:29:24;1.77;;;1.67;;
2944;SDS011;1482;51.398;7.128;2022-11-15T08:31:50;2.43;;;1.87;;
2944;SDS011;1482;51.398;7.128;2022-11-15T08:34:16;2.20;;;2.00;;
2944;SDS011;1482;51.398;7.128;2022-11-15T08:36:41;6.17;;;1.87;;
2944;SDS011;1482;51.398;7.128;2022-11-15T08:39:09;2.43;;;2.23;;
2944;SDS011;1482;51.398;7.128;2022-11-15T08:41:36;2.30;;;1.93;;
2944;SDS011;1482;51.398;7.128;2022-11-15T08:44:02;2.20;;;1.90;;
2944;SDS011;1482;51.398;7.128;2022-11-15T08:46:28;6.53;;;3.40;;
2944;SDS011;1482;51.398;7.128;2022-11-15T08:48:54;3.53;;;2.20;;
2944;SDS011;1482;51.398;7.128;2022-11-15T08:51:19;2.30;;;1.80;;
2944;SDS011;1482;51.398;7.128;2022-11-15T08:53:45;2.90;;;1.73;;
2944;SDS011;1482;51.398;7.128;2022-11-15T08:56:11;2.43;;;2.23;;
2944;SDS011;1482;51.398;7.128;2022-11-15T08:58:38;2.60;;;2.40;;
2944;SDS011;1482;51.398;7.128;2022-11-15T09:01:04;3.57;;;2.07;;
2944;SDS011;1482;51.398;7.128;2022-11-15T09:03:30;2.40;;;1.60;;
2944;SDS011;1482;51.398;7.128;2022-11-15T09:05:56;2.77;;;2.00;;
2944;SDS011;1482;51.398;7.128;2022-11-15T09:08:23;2.53;;;2.17;;
2944;SDS011;1482;51.398;7.128;2022-11-15T09:10:50;3.23;;;1.63;;
2944;SDS011;1482;51.398;7.128;2022-11-15T09:13:15;4.00;;;2.23;;
2944;SDS011;1482;51.398;7.128;2022-11-15T09:15:41;2.27;;;2.03;;
2944;SDS011;1482;51.398;7.128;2022-11-15T09:18:07;1.70;;;1.60;;
2944;SDS011;1482;51.398;7.128;2022-11-15T09:20:32;1.53;;;1.43;;
2944;SDS011;1482;51.398;7.128;2022-11-15T09:23:01;1.73;;;1.63;;
2944;SDS011;1482;51.398;7.128;2022-11-15T09:25:28;1.83;;;1.20;;
2944;SDS011;1482;51.398;7.128;2022-11-15T09:27:54;2.00;;;1.70;;
2944;SDS011;1482;51.398;7.128;2022-11-15T09:30:19;7.00;;;1.60;;
2944;SDS011;1482;51.398;7.128;2022-11-15T09:32:45;2.20;;;2.00;;
2944;SDS011;1482;51.398;7.128;2022-11-15T09:35:11;2.87;;;2.67;;
2944;SDS011;1482;51.398;7.128;2022-11-15T09:37:36;2.50;;;2.00;;
2944;SDS011;1482;51.398;7.128;2022-11-15T09:40:03;3.97;;;2.33;;
2944;SDS011;1482;51.398;7.128;2022-11-15T09:45:34;2.70;;;2.60;;
2944;SDS011;1482;51.398;7.128;2022-11-15T09:48:07;3.63;;;2.90;;
2944;SDS011;1482;51.398;7.128;2022-11-15T09:50:46;2.83;;;2.57;;
2944;SDS011;1482;51.398;7.128;2022-11-15T09:53:16;2.70;;;2.57;;
2944;SDS011;1482;51.398;7.128;2022-11-15T09:55:59;3.33;;;2.40;;
2944;SDS011;1482;51.398;7.128;2022-11-15T09:58:28;2.57;;;2.37;;
2944;SDS011;1482;51.398;7.128;2022-11-15T10:01:06;2.67;;;2.47;;
2944;SDS011;1482;51.398;7.128;2022-11-15T10:03:38;3.53;;;2.40;;
2944;SDS011;1482;51.398;7.128;2022-11-15T10:06:08;2.50;;;2.40;;
2944;SDS011;1482;51.398;7.128;2022-11-15T10:08:56;2.77;;;2.60;;
2944;SDS011;1482;51.398;7.128;2022-11-15T10:11:28;2.47;;;2.33;;
2944;SDS011;1482;51.398;7.128;2022-11-15T10:13:58;3.17;;;2.57;;
2944;SDS011;1482;51.398;7.128;2022-11-15T10:16:41;3.10;;;2.53;;
2944;SDS011;1482;51.398;7.128;2022-11-15T10:24:47;2.20;;;1.80;;
2944;SDS011;1482;51.398;7.128;2022-11-15T10:27:14;3.50;;;1.80;;
2944;SDS011;1482;51.398;7.128;2022-11-15T10:29:45;2.27;;;1.50;;
2944;SDS011;1482;51.398;7.128;2022-11-15T10:32:14;2.40;;;2.30;;
2944;SDS011;1482;51.398;7.128;2022-11-15T10:34:41;1.70;;;1.60;;
2944;SDS011;1482;51.398;7.128;2022-11-15T10:37:07;3.37;;;1.70;;
2944;SDS011;1482;51.398;7.128;2022-11-15T10:39:33;2.93;;;1.77;;
2944;SDS011;1482;51.398;7.128;2022-11-15T10:42:14;2.03;;;1.67;;
2944;SDS011;1482;51.398;7.128;2022-11-15T10:44:50;2.70;;;1.90;;
2944;SDS011;1482;51.398;7.128;2022-11-15T10:49:58;2.10;;;1.90;;
2944;SDS011;1482;51.398;7.128;2022-11-15T10:52:25;1.63;;;1.53;;
2944;SDS011;1482;51.398;7.128;2022-11-15T10:54:53;2.63;;;1.90;;
2944;SDS011;1482;51.398;7.128;2022-11-15T10:57:23;2.67;;;2.10;;
2944;SDS011;1482;51.398;7.128;2022-11-15T10:59:52;3.60;;;2.47;;
2944;SDS011;1482;51.398;7.128;2022-11-15T11:02:47;2.40;;;1.90;;
2944;SDS011;1482;51.398;7.128;2022-11-15T11:05:37;5.20;;;2.07;;
2944;SDS011;1482;51.398;7.128;2022-11-15T11:10:38;1.60;;;1.37;;
2944;SDS011;1482;51.398;7.128;2022-11-15T11:13:13;1.67;;;1.57;;
2944;SDS011;1482;51.398;7.128;2022-11-15T11:15:40;1.50;;;1.40;;
2944;SDS011;1482;51.398;7.128;2022-11-15T11:18:15;2.03;;;1.57;;
2944;SDS011;1482;51.398;7.128;2022-11-15T11:20:51;1.50;;;1.40;;
2944;SDS011;1482;51.398;7.128;2022-11-15T11:26:29;2.70;;;2.33;;
2944;SDS011;1482;51.398;7.128;2022-11-15T11:32:20;2.70;;;1.53;;
2944;SDS011;1482;51.398;7.128;2022-11-15T11:37:45;2.40;;;1.60;;
2944;SDS011;1482;51.398;7.128;2022-11-15T11:41:20;3.53;;;1.70;;
2944;SDS011;1482;51.398;7.128;2022-11-15T11:46:13;1.60;;;1.50;;
2944;SDS011;1482;51.398;7.128;2022-11-15T11:48:51;1.67;;;1.57;;
2944;SDS011;1482;51.398;7.128;2022-11-15T11:51:40;2.13;;;1.70;;
2944;SDS011;1482;51.398;7.128;2022-11-15T11:56:53;2.00;;;1.50;;
2944;SDS011;1482;51.398;7.128;2022-11-15T11:59:32;1.90;;;1.80;;
2944;SDS011;1482;51.398;7.128;2022-11-15T12:02:01;4.33;;;1.57;;
2944;SDS011;1482;51.398;7.128;2022-11-15T12:04:38;1.87;;;1.67;;
2944;SDS011;1482;51.398;7.128;2022-11-15T12:07:14;2.00;;;1.80;;
2944;SDS011;1482;51.398;7.128;2022-11-15T12:09:55;1.77;;;1.67;;
2944;SDS011;1482;51.398;7.128;2022-11-15T12:15:19;1.83;;;1.73;;
2944;SDS011;1482;51.398;7.128;2022-11-15T12:17:50;2.00;;;1.50;;
2944;SDS011;1482;51.398;7.128;2022-11-15T12:20:18;4.13;;;1.70;;
2944;SDS011;1482;51.398;7.128;2022-11-15T12:31:18;1.90;;;1.80;;
2944;SDS011;1482;51.398;7.128;2022-11-15T12:34:01;10.83;;;2.10;;
2944;SDS011;1482;51.398;7.128;2022-11-15T12:36:46;2.77;;;1.83;;
2944;SDS011;1482;51.398;7.128;2022-11-15T12:39:13;3.63;;;2.17;;
2944;SDS011;1482;51.398;7.128;2022-11-15T12:41:40;2.17;;;1.97;;
2944;SDS011;1482;51.398;7.128;2022-11-15T12:44:11;2.17;;;2.07;;
2944;SDS011;1482;51.398;7.128;2022-11-15T13:02:26;2.63;;;1.50;;
2944;SDS011;1482;51.398;7.128;2022-11-15T13:07:59;3.73;;;2.10;;
2944;SDS011;1482;51.398;7.128;2022-11-15T13:12:51;2.80;;;2.00;;
2944;SDS011;1482;51.398;7.128;2022-11-15T13:18:30;1.60;;;1.50;;
2944;SDS011;1482;51.398;7.128;2022-11-15T13:20:57;2.60;;;1.93;;
2944;SDS011;1482;51.398;7.128;2022-11-15T13:23:24;4.40;;;2.37;;
2944;SDS011;1482;51.398;7.128;2022-11-15T13:31:29;2.63;;;1.70;;
2944;SDS011;1482;51.398;7.128;2022-11-15T13:34:16;2.20;;;1.80;;
2944;SDS011;1482;51.398;7.128;2022-11-15T13:36:49;3.50;;;3.00;;
2944;SDS011;1482;51.398;7.128;2022-11-15T13:39:31;6.07;;;4.90;;
2944;SDS011;1482;51.398;7.128;2022-11-15T13:41:58;3.73;;;2.80;;
2944;SDS011;1482;51.398;7.128;2022-11-15T13:44:25;2.80;;;2.30;;
2944;SDS011;1482;51.398;7.128;2022-11-15T13:47:03;3.50;;;2.20;;
2944;SDS011;1482;51.398;7.128;2022-11-15T13:49:37;4.07;;;3.37;;
2944;SDS011;1482;51.398;7.128;2022-11-15T13:52:04;2.53;;;2.13;;
2944;SDS011;1482;51.398;7.128;2022-11-15T13:57:21;3.30;;;2.03;;
2944;SDS011;1482;51.398;7.128;2022-11-15T13:59:56;2.17;;;1.80;;
2944;SDS011;1482;51.398;7.128;2022-11-15T14:02:27;2.70;;;1.80;;
2944;SDS011;1482;51.398;7.128;2022-11-15T14:04:57;2.80;;;2.00;;
2944;SDS011;1482;51.398;7.128;2022-11-15T14:07:30;5.97;;;2.07;;
2944;SDS011;1482;51.398;7.128;2022-11-15T14:09:57;2.00;;;1.80;;
2944;SDS011;1482;51.398;7.128;2022-11-15T14:12:30;3.00;;;1.80;;
2944;SDS011;1482;51.398;7.128;2022-11-15T14:14:58;3.13;;;2.03;;
2944;SDS011;1482;51.398;7.128;2022-11-15T14:19:54;3.03;;;2.27;;
2944;SDS011;1482;51.398;7.128;2022-11-15T14:22:21;2.10;;;1.90;;
2944;SDS011;1482;51.398;7.128;2022-11-15T14:25:07;5.10;;;2.43;;
2944;SDS011;1482;51.398;7.128;2022-11-15T14:27:40;1.70;;;1.60;;
2944;SDS011;1482;51.398;7.128;2022-11-15T14:30:12;3.80;;;2.20;;
2944;SDS011;1482;51.398;7.128;2022-11-15T14:32:49;2.37;;;1.90;;
2944;SDS011;1482;51.398;7.128;2022-11-15T14:35:17;4.53;;;2.00;;
2944;SDS011;1482;51.398;7.128;2022-11-15T14:37:44;3.63;;;1.93;;
2944;SDS011;1482;51.398;7.128;2022-11-15T14:40:12;2.30;;;1.80;;
2944;SDS011;1482;51.398;7.128;2022-11-15T14:42:39;3.00;;;2.20;;
2944;SDS011;1482;51.398;7.128;2022-11-15T14:45:10;2.30;;;2.03;;
2944;SDS011;1482;51.398;7.128;2022-11-15T14:47:38;2.77;;;2.30;;
2944;SDS011;1482;51.398;7.128;2022-11-15T14:50:04;3.40;;;2.13;;
2944;SDS011;1482;51.398;7.128;2022-11-15T14:52:30;2.40;;;2.20;;
2944;SDS011;1482;51.398;7.128;2022-11-15T14:55:00;3.43;;;2.47;;
2944;SDS011;1482;51.398;7.128;2022-11-15T14:57:29;3.07;;;2.00;;
2944;SDS011;1482;51.398;7.128;2022-11-15T14:59:55;3.23;;;2.50;;
2944;SDS011;1482;51.398;7.128;2022-11-15T15:02:22;4.87;;;2.93;;
2944;SDS011;1482;51.398;7.128;2022-11-15T15:04:50;3.47;;;3.17;;
2944;SDS011;1482;51.398;7.128;2022-11-15T15:07:16;8.20;;;4.80;;
2944;SDS011;1482;51.398;7.128;2022-11-15T15:09:43;6.73;;;4.60;;
2944;SDS011;1482;51.398;7.128;2022-11-15T15:12:14;9.30;;;5.13;;
2944;SDS011;1482;51.398;7.128;2022-11-15T15:14:42;5.07;;;4.00;;
2944;SDS011;1482;51.398;7.128;2022-11-15T15:17:08;3.33;;;2.90;;
2944;SDS011;1482;51.398;7.128;2022-11-15T15:19:33;4.10;;;2.70;;
2944;SDS011;1482;51.398;7.128;2022-11-15T15:21:59;2.20;;;2.00;;
2944;SDS011;1482;51.398;7.128;2022-11-15T15:24:24;2.60;;;2.13;;
2944;SDS011;1482;51.398;7.128;2022-11-15T15:26:50;5.83;;;2.33;;
2944;SDS011;1482;51.398;7.128;2022-11-15T15:29:16;2.67;;;2.40;;
2944;SDS011;1482;51.398;7.128;2022-11-15T15:31:41;3.23;;;2.00;;
2944;SDS011;1482;51.398;7.128;2022-11-15T15:34:07;4.00;;;2.17;;
2944;SDS011;1482;51.398;7.128;2022-11-15T15:36:32;7.80;;;2.83;;
2944;SDS011;1482;51.398;7.128;2022-11-15T15:38:58;5.83;;;2.47;;
2944;SDS011;1482;51.398;7.128;2022-11-15T15:41:23;3.53;;;2.00;;
2944;SDS011;1482;51.398;7.128;2022-11-15T15:43:49;3.00;;;2.20;;
2944;SDS011;1482;51.398;7.128;2022-11-15T15:46:16;2.27;;;2.07;;
2944;SDS011;1482;51.398;7.128;2022-11-15T15:48:42;2.47;;;2.20;;
2944;SDS011;1482;51.398;7.128;2022-11-15T15:51:09;2.57;;;1.90;;
2944;SDS011;1482;51.398;7.128;2022-11-15T15:53:35;3.03;;;1.80;;
2944;SDS011;1482;51.398;7.128;2022-11-15T15:56:00;3.17;;;2.13;;
2944;SDS011;1482;51.398;7.128;2022-11-15T15:58:26;2.90;;;1.97;;
2944;SDS011;1482;51.398;7.128;2022-11-15T16:00:52;3.33;;;1.90;;
2944;SDS011;1482;51.398;7.128;2022-11-15T16:03:17;3.47;;;2.60;;
2944;SDS011;1482;51.398;7.128;2022-11-15T16:05:43;3.40;;;3.10;;
2944;SDS011;1482;51.398;7.128;2022-11-15T16:08:16;6.20;;;2.20;;
2944;SDS011;1482;51.398;7.128;2022-11-15T16:10:46;2.37;;;2.10;;
2944;SDS011;1482;51.398;7.128;2022-11-15T16:13:12;2.27;;;1.80;;
2944;SDS011;1482;51.398;7.128;2022-11-15T16:15:38;2.40;;;1.97;;
2944;SDS011;1482;51.398;7.128;2022-11-15T16:18:04;3.20;;;2.07;;
2944;SDS011;1482;51.398;7.128;2022-11-15T16:23:07;3.00;;;2.00;;
2944;SDS011;1482;51.398;7.128;2022-11-15T16:25:45;4.30;;;2.33;;
2944;SDS011;1482;51.398;7.128;2022-11-15T16:28:15;2.03;;;1.93;;
2944;SDS011;1482;51.398;7.128;2022-11-15T16:30:46;5.37;;;2.40;;
2944;SDS011;1482;51.398;7.128;2022-11-15T16:33:12;2.23;;;1.93;;
2944;SDS011;1482;51.398;7.128;2022-11-15T16:35:38;2.17;;;1.97;;
2944;SDS011;1482;51.398;7.128;2022-11-15T16:38:03;4.50;;;2.47;;
2944;SDS011;1482;51.398;7.128;2022-11-15T16:40:32;2.27;;;2.07;;
2944;SDS011;1482;51.398;7.128;2022-11-15T16:42:59;4.67;;;1.90;;
2944;SDS011;1482;51.398;7.128;2022-11-15T16:45:27;2.47;;;2.27;;
2944;SDS011;1482;51.398;7.128;2022-11-15T16:47:53;2.60;;;1.97;;
2944;SDS011;1482;51.398;7.128;2022-11-15T16:50:20;2.27;;;1.83;;
2944;SDS011;1482;51.398;7.128;2022-11-15T16:52:49;2.20;;;2.00;;
2944;SDS011;1482;51.398;7.128;2022-11-15T16:55:19;2.73;;;2.30;;
2944;SDS011;1482;51.398;7.128;2022-11-15T16:57:45;2.70;;;2.03;;
2944;SDS011;1482;51.398;7.128;2022-11-15T17:00:11;1.97;;;1.70;;
2944;SDS011;1482;51.398;7.128;2022-11-15T17:02:40;2.20;;;2.00;;
2944;SDS011;1482;51.398;7.128;2022-11-15T17:05:09;2.03;;;1.83;;
2944;SDS011;1482;51.398;7.128;2022-11-15T17:07:35;2.67;;;2.20;;
2944;SDS011;1482;51.398;7.128;2022-11-15T17:10:01;3.40;;;2.10;;
2944;SDS011;1482;51.398;7.128;2022-11-15T17:12:27;5.30;;;1.93;;
2944;SDS011;1482;51.398;7.128;2022-11-15T17:14:54;1.83;;;1.73;;